Time;durP1;ratioP1;P1;durP2;ratioP2;P2;SDS_P1;SDS_P2;PMS_P1;PMS_P2;Temp;Humidity;BMP_temperature;BMP_pressure;BME280_temperature;BME280_humidity;BME280_pressure;Samples;Min_cycle;Max_cycle;Signal;HPM_P1;HPM_P2
2021/06/20 00:00:08;;;;;;;0.50;0.40;;;;;;;28.12;68.50;99313.09;4998564;28;20455;-51
2021/06/20 00:02:36;;;;;;;0.50;0.30;;;;;;;28.16;68.85;99308.97;4992672;28;20888;-52
2021/06/20 00:05:09;;;;;;;0.60;0.50;;;;;;;28.27;68.66;99310.47;5005807;28;20463;-52
2021/06/20 00:07:38;;;;;;;2.47;1.50;;;;;;;28.40;68.58;99304.41;5004612;28;20453;-52
2021/06/20 00:10:08;;;;;;;0.50;0.30;;;;;;;28.34;68.17;99292.28;4995639;28;20559;-52
2021/06/20 00:12:37;;;;;;;0.50;0.37;;;;;;;28.36;68.44;99292.94;5001868;28;20594;-52
2021/06/20 00:15:08;;;;;;;0.50;0.30;;;;;;;28.24;69.00;99287.03;4997578;28;20877;-51
2021/06/20 00:17:35;;;;;;;0.50;0.30;;;;;;;28.20;69.32;99295.78;4996668;28;20454;-53
2021/06/20 00:20:05;;;;;;;0.50;0.30;;;;;;;28.31;69.52;99317.25;4998393;28;20500;-53
2021/06/20 00:22:32;;;;;;;0.50;0.47;;;;;;;28.10;70.42;99331.56;5006481;28;20499;-53
2021/06/20 00:24:59;;;;;;;1.03;0.93;;;;;;;28.06;70.49;99334.81;5005322;28;20571;-52
2021/06/20 00:27:26;;;;;;;0.50;0.43;;;;;;;28.16;70.21;99328.09;5007289;28;20978;-53
2021/06/20 00:29:52;;;;;;;0.60;0.43;;;;;;;28.08;71.05;99343.66;4999577;28;20486;-53
2021/06/20 00:32:19;;;;;;;0.50;0.40;;;;;;;27.99;71.68;99343.75;5004576;28;20485;-53
2021/06/20 00:34:46;;;;;;;0.50;0.40;;;;;;;28.04;70.98;99346.78;4999436;28;20492;-53
2021/06/20 00:37:12;;;;;;;1.27;1.20;;;;;;;27.96;71.52;99332.28;5005720;28;20453;-53
2021/06/20 00:39:39;;;;;;;1.70;1.60;;;;;;;27.95;71.06;99323.25;5005151;28;20468;-53
2021/06/20 00:42:06;;;;;;;1.03;0.87;;;;;;;28.04;71.05;99324.06;5009918;28;20526;-53
2021/06/20 00:44:46;;;;;;;0.57;0.57;;;;;;;27.86;72.91;99348.06;5001733;28;20460;-53
2021/06/20 00:47:13;;;;;;;0.50;0.30;;;;;;;27.87;74.89;99345.16;5007309;28;20467;-52
2021/06/20 00:49:40;;;;;;;0.50;0.50;;;;;;;28.17;75.86;99348.91;5009727;28;20470;-52
2021/06/20 00:52:07;;;;;;;0.50;0.30;;;;;;;27.83;75.57;99362.09;5008641;28;20491;-52
2021/06/20 00:54:36;;;;;;;0.50;0.30;;;;;;;28.18;72.99;99363.44;5003650;28;20464;-52
2021/06/20 00:57:03;;;;;;;0.93;0.90;;;;;;;27.95;73.69;99379.78;5009708;28;20991;-52
2021/06/20 00:59:31;;;;;;;0.60;0.50;;;;;;;27.85;73.38;99377.28;4998934;28;20934;-52
2021/06/20 01:01:57;;;;;;;1.40;1.40;;;;;;;27.78;74.21;99384.47;5002892;28;20463;-52
2021/06/20 01:04:24;;;;;;;0.87;0.87;;;;;;;27.66;72.76;99388.59;4998212;28;20457;-52
2021/06/20 01:06:50;;;;;;;1.20;1.10;;;;;;;27.64;71.64;99396.13;5003907;28;20456;-52
2021/06/20 01:09:17;;;;;;;1.17;1.17;;;;;;;27.23;73.13;99396.16;5008691;28;20988;-51
2021/06/20 01:11:44;;;;;;;0.50;0.37;;;;;;;27.34;73.27;99403.16;5007150;28;20477;-52
2021/06/20 01:14:12;;;;;;;0.50;0.30;;;;;;;27.35;73.11;99400.25;4995316;28;20488;-52
2021/06/20 01:16:39;;;;;;;0.70;0.70;;;;;;;27.32;72.71;99397.88;5009633;28;20476;-52
2021/06/20 01:19:06;;;;;;;0.60;0.53;;;;;;;27.28;72.65;99382.03;5006626;28;20526;-52
2021/06/20 01:21:33;;;;;;;16.57;1.17;;;;;;;27.41;72.11;99390.50;4997587;28;20468;-52
2021/06/20 01:23:59;;;;;;;0.50;0.30;;;;;;;27.53;71.63;99390.97;5000943;28;20453;-52
2021/06/20 01:26:26;;;;;;;0.50;0.30;;;;;;;27.47;70.99;99397.16;4999612;28;20456;-52
2021/06/20 01:29:03;;;;;;;0.50;0.30;;;;;;;27.36;71.88;99398.38;5001542;28;20457;-52
2021/06/20 01:31:33;;;;;;;1.40;1.30;;;;;;;27.32;70.91;99408.78;4997493;28;20480;-51
2021/06/20 01:34:01;;;;;;;2.10;2.00;;;;;;;27.43;70.24;99411.16;5002856;28;20457;-52
2021/06/20 01:36:30;;;;;;;3.90;1.47;;;;;;;27.25;68.87;99399.56;5011666;28;21020;-52
2021/06/20 01:38:57;;;;;;;0.50;0.30;;;;;;;27.36;68.11;99398.38;5004088;28;20453;-52
2021/06/20 01:41:24;;;;;;;3.53;1.60;;;;;;;27.29;67.54;99402.81;5000810;28;21056;-52
2021/06/20 01:43:51;;;;;;;1.13;1.10;;;;;;;27.24;66.70;99407.94;5012975;28;20456;-52
2021/06/20 01:46:17;;;;;;;2.20;2.10;;;;;;;27.09;67.99;99405.03;5003032;28;20885;-51
2021/06/20 01:48:44;;;;;;;0.67;0.60;;;;;;;27.23;67.77;99404.34;5004846;28;20625;-53
2021/06/20 01:51:11;;;;;;;0.50;0.30;;;;;;;27.04;67.37;99412.91;5008086;28;20484;-52
2021/06/20 01:53:37;;;;;;;0.50;0.30;;;;;;;27.01;67.11;99416.84;5013578;28;20554;-52
2021/06/20 01:56:04;;;;;;;0.50;0.30;;;;;;;27.06;67.41;99410.84;5003552;28;20463;-52
2021/06/20 01:58:31;;;;;;;1.10;0.50;;;;;;;27.28;66.85;99417.50;5005471;28;20464;-52
2021/06/20 02:00:58;;;;;;;0.97;0.97;;;;;;;27.10;67.02;99413.06;5011035;28;20495;-51
2021/06/20 02:03:27;;;;;;;0.50;0.33;;;;;;;27.06;67.09;99429.94;5003997;28;20564;-51
2021/06/20 02:06:00;;;;;;;3.77;0.97;;;;;;;26.96;67.40;99441.00;4999997;28;20456;-52
2021/06/20 02:08:28;;;;;;;1.53;1.03;;;;;;;26.93;67.63;99437.75;5008272;28;20428;-52
2021/06/20 02:10:56;;;;;;;0.50;0.20;;;;;;;26.89;68.06;99439.13;5008007;28;20477;-52
2021/06/20 02:13:27;;;;;;;0.50;0.30;;;;;;;27.11;68.49;99442.03;5005724;28;20484;-52
2021/06/20 02:15:54;;;;;;;0.63;0.50;;;;;;;26.91;69.60;99454.28;5007840;28;20452;-52
2021/06/20 02:18:21;;;;;;;0.63;0.60;;;;;;;26.95;69.59;99454.81;5009548;28;20552;-52
2021/06/20 02:20:48;;;;;;;0.50;0.33;;;;;;;26.73;70.17;99445.41;4996293;28;20490;-52
2021/06/20 02:23:15;;;;;;;0.50;0.30;;;;;;;26.73;70.20;99448.16;4999844;28;20429;-52
2021/06/20 02:25:41;;;;;;;0.50;0.30;;;;;;;26.63;70.89;99442.84;5008746;28;20906;-52
2021/06/20 02:28:08;;;;;;;0.50;0.40;;;;;;;26.75;69.85;99438.78;5005926;28;20454;-53
2021/06/20 02:30:35;;;;;;;0.50;0.30;;;;;;;26.54;70.95;99446.56;5004962;28;20564;-52
2021/06/20 02:33:02;;;;;;;0.50;0.30;;;;;;;26.53;70.51;99453.03;4996497;28;20495;-52
2021/06/20 02:35:29;;;;;;;0.50;0.30;;;;;;;26.58;70.24;99467.00;5000804;28;20453;-52
2021/06/20 02:37:56;;;;;;;0.50;0.30;;;;;;;26.43;70.85;99479.56;5004347;28;20461;-51
2021/06/20 02:40:23;;;;;;;0.50;0.33;;;;;;;26.54;70.80;99498.34;4998749;28;20493;-52
2021/06/20 02:42:50;;;;;;;0.50;0.30;;;;;;;26.15;72.18;99504.28;4995144;28;20454;-51
2021/06/20 02:45:20;;;;;;;0.60;0.30;;;;;;;26.35;71.41;99510.34;4994058;28;20573;-52
2021/06/20 02:47:47;;;;;;;0.50;0.30;;;;;;;25.99;72.72;99520.56;5001346;28;20465;-51
2021/06/20 02:50:15;;;;;;;0.50;0.30;;;;;;;26.00;72.81;99522.25;5005796;28;20501;-51
2021/06/20 02:52:43;;;;;;;0.60;0.40;;;;;;;25.98;73.16;99525.16;5005400;28;21068;-51
2021/06/20 02:55:11;;;;;;;0.50;0.20;;;;;;;25.87;73.24;99516.38;4996008;28;20458;-52
2021/06/20 02:57:37;;;;;;;0.50;0.30;;;;;;;26.05;72.71;99524.53;4990775;28;20460;-52
2021/06/20 03:00:06;;;;;;;0.50;0.30;;;;;;;25.96;72.88;99529.06;5007651;28;20483;-52
2021/06/20 03:02:33;;;;;;;0.60;0.50;;;;;;;26.02;73.08;99539.28;5008010;28;20480;-52
2021/06/20 03:04:59;;;;;;;0.50;0.30;;;;;;;26.01;72.88;99547.63;4994561;28;20507;-52
2021/06/20 03:07:27;;;;;;;2.40;0.93;;;;;;;26.16;72.79;99562.38;5004267;28;20555;-52
2021/06/20 03:09:55;;;;;;;0.50;0.30;;;;;;;25.98;73.18;99567.88;5009959;28;20476;-52
2021/06/20 03:12:22;;;;;;;0.50;0.23;;;;;;;25.88;73.36;99567.13;4998286;28;20495;-52
2021/06/20 03:14:50;;;;;;;0.70;0.70;;;;;;;25.72;74.32;99577.91;4999195;28;20981;-52
2021/06/20 03:17:17;;;;;;;66.93;1.73;;;;;;;26.01;72.91;99573.00;4998594;28;20456;-52
2021/06/20 03:19:45;;;;;;;0.87;0.87;;;;;;;25.76;73.89;99576.56;5011493;28;20860;-52
2021/06/20 03:22:12;;;;;;;0.60;0.53;;;;;;;25.68;73.39;99585.50;5001386;28;20536;-52
2021/06/20 03:24:41;;;;;;;0.67;0.60;;;;;;;25.75;73.22;99586.59;5001491;28;20427;-52
2021/06/20 03:27:08;;;;;;;6.30;1.13;;;;;;;25.68;73.14;99596.38;5010003;28;20975;-52
2021/06/20 03:29:35;;;;;;;2.10;2.00;;;;;;;25.75;73.36;99600.22;5001131;28;20459;-51
2021/06/20 03:32:02;;;;;;;0.50;0.30;;;;;;;25.86;72.47;99597.25;4998245;28;20461;-53
2021/06/20 03:34:31;;;;;;;2.30;1.00;;;;;;;25.80;72.79;99606.06;4997068;28;20516;-52
2021/06/20 03:37:00;;;;;;;0.50;0.50;;;;;;;25.97;72.30;99616.06;5002351;28;20508;-52
2021/06/20 03:39:28;;;;;;;0.50;0.30;;;;;;;25.57;73.18;99616.53;4996670;28;20450;-52
2021/06/20 03:41:55;;;;;;;0.50;0.30;;;;;;;25.52;73.45;99616.16;4997356;28;20985;-52
2021/06/20 03:44:22;;;;;;;0.50;0.30;;;;;;;25.47;74.14;99613.03;4993924;28;20591;-54
2021/06/20 03:46:48;;;;;;;0.50;0.20;;;;;;;25.51;73.77;99603.56;5001430;28;20460;-53
2021/06/20 03:49:15;;;;;;;0.50;0.30;;;;;;;25.35;73.65;99609.69;4996779;28;20488;-53
2021/06/20 03:51:43;;;;;;;0.83;0.83;;;;;;;25.36;73.91;99618.72;5002960;28;20552;-53
2021/06/20 03:54:10;;;;;;;0.50;0.30;;;;;;;25.49;73.51;99616.44;4997367;28;20481;-52
2021/06/20 03:56:37;;;;;;;0.50;0.30;;;;;;;25.25;74.25;99613.50;4997130;28;20508;-52
2021/06/20 03:59:04;;;;;;;0.60;0.40;;;;;;;25.22;74.15;99611.06;4995769;28;20456;-53
2021/06/20 04:01:30;;;;;;;0.50;0.30;;;;;;;25.01;75.38;99627.69;4999518;28;20505;-53
2021/06/20 04:03:57;;;;;;;2.73;0.97;;;;;;;25.40;74.19;99625.56;5002529;28;20480;-51
2021/06/20 04:06:24;;;;;;;0.50;0.40;;;;;;;25.15;75.36;99629.03;5000411;28;21025;-52
2021/06/20 04:08:50;;;;;;;0.50;0.30;;;;;;;25.12;75.24;99629.34;5004861;28;21008;-52
2021/06/20 04:11:17;;;;;;;0.50;0.30;;;;;;;25.01;75.58;99617.66;5001176;28;20501;-52
2021/06/20 04:13:43;;;;;;;0.50;0.20;;;;;;;25.24;74.45;99628.97;5007282;28;20535;-52
2021/06/20 04:16:10;;;;;;;0.50;0.30;;;;;;;25.02;75.63;99613.94;4994860;28;20504;-52
2021/06/20 04:18:37;;;;;;;0.50;0.30;;;;;;;25.03;75.15;99606.63;5000924;28;20544;-52
2021/06/20 04:21:04;;;;;;;0.50;0.30;;;;;;;24.98;75.89;99617.94;5004262;28;20480;-52
2021/06/20 04:23:30;;;;;;;0.73;0.40;;;;;;;24.96;76.50;99625.41;5002453;28;20885;-52
2021/06/20 04:25:57;;;;;;;0.50;0.30;;;;;;;25.18;76.05;99621.41;4998666;28;20457;-52
2021/06/20 04:28:23;;;;;;;0.50;0.47;;;;;;;25.17;75.64;99611.53;5003566;28;20449;-52
2021/06/20 04:30:54;;;;;;;0.50;0.20;;;;;;;24.88;77.58;99608.13;5000882;28;20477;-52
2021/06/20 04:33:21;;;;;;;0.50;0.30;;;;;;;24.85;77.82;99603.84;4999212;28;20481;-52
2021/06/20 04:35:50;;;;;;;0.50;0.20;;;;;;;24.68;78.32;99608.25;4999146;28;20464;-52
2021/06/20 04:38:18;;;;;;;0.50;0.30;;;;;;;24.77;78.09;99604.59;5000384;28;20453;-52
2021/06/20 04:40:49;;;;;;;0.60;0.50;;;;;;;24.65;78.84;99608.53;4995955;28;20473;-52
2021/06/20 04:43:40;;;;;;;1.30;0.80;;;;;;;24.52;79.19;99629.75;4998404;28;20437;-53
2021/06/20 04:46:22;;;;;;;0.50;0.30;;;;;;;24.68;78.71;99637.28;5003752;28;20510;-52
2021/06/20 04:48:54;;;;;;;0.80;0.60;;;;;;;24.70;78.57;99640.72;4999689;28;20457;-51
2021/06/20 04:51:21;;;;;;;0.50;0.30;;;;;;;24.90;78.24;99639.59;5003204;28;20497;-52
2021/06/20 04:53:49;;;;;;;0.87;0.87;;;;;;;24.60;80.13;99629.88;5000727;28;21014;-51
2021/06/20 04:56:16;;;;;;;0.50;0.30;;;;;;;24.65;79.54;99634.84;4999250;28;20826;-51
2021/06/20 04:58:42;;;;;;;0.50;0.20;;;;;;;24.52;79.54;99635.19;5002312;28;21012;-50
2021/06/20 05:01:09;;;;;;;0.50;0.20;;;;;;;24.77;78.88;99641.81;5001986;28;20476;-51
2021/06/20 05:03:36;;;;;;;0.50;0.20;;;;;;;24.82;79.42;99644.94;4995879;28;20830;-51
2021/06/20 05:06:03;;;;;;;0.50;0.30;;;;;;;25.02;77.77;99640.28;4999021;28;20452;-51
2021/06/20 05:08:30;;;;;;;0.70;0.67;;;;;;;24.91;78.05;99644.03;4996823;28;20449;-51
2021/06/20 05:10:56;;;;;;;0.50;0.40;;;;;;;24.91;79.06;99652.19;5005613;28;20861;-53
2021/06/20 05:13:23;;;;;;;0.80;0.60;;;;;;;24.96;78.65;99641.72;4993730;28;20489;-52
2021/06/20 05:15:50;;;;;;;5.70;1.60;;;;;;;25.01;78.72;99650.31;4990545;28;20485;-52
2021/06/20 05:18:17;;;;;;;0.70;0.50;;;;;;;25.15;78.06;99661.69;4999031;28;20461;-51
2021/06/20 05:20:44;;;;;;;0.50;0.30;;;;;;;25.02;77.50;99662.03;5004152;28;20922;-52
2021/06/20 05:23:10;;;;;;;0.50;0.30;;;;;;;25.06;78.40;99672.47;5000261;28;20453;-52
2021/06/20 05:25:37;;;;;;;0.60;0.37;;;;;;;24.93;78.01;99666.47;5001599;28;20943;-51
2021/06/20 05:28:04;;;;;;;0.50;0.30;;;;;;;25.13;77.12;99663.69;4995321;28;20508;-52
2021/06/20 05:30:31;;;;;;;0.60;0.40;;;;;;;25.17;77.22;99668.69;4998368;28;20523;-51
2021/06/20 05:32:58;;;;;;;0.50;0.30;;;;;;;25.37;76.32;99672.16;4996921;28;21361;-52
2021/06/20 05:35:24;;;;;;;0.50;0.50;;;;;;;25.13;76.30;99664.56;5012334;28;20448;-51
2021/06/20 05:37:52;;;;;;;5.83;1.70;;;;;;;25.16;75.87;99666.13;5013706;28;20449;-51
2021/06/20 05:40:19;;;;;;;0.50;0.40;;;;;;;25.41;75.29;99665.38;5006340;28;20978;-51
2021/06/20 05:42:46;;;;;;;0.50;0.30;;;;;;;25.70;74.86;99659.75;5010054;28;20852;-52
2021/06/20 05:45:13;;;;;;;0.50;0.30;;;;;;;25.77;73.20;99657.22;4998508;28;20593;-51
2021/06/20 05:47:40;;;;;;;0.50;0.30;;;;;;;25.94;72.84;99659.09;4999949;28;20468;-52
2021/06/20 05:50:07;;;;;;;0.50;0.30;;;;;;;26.10;71.78;99666.56;4990999;28;20489;-51
2021/06/20 05:52:34;;;;;;;0.50;0.30;;;;;;;26.15;71.97;99675.09;4994229;28;20457;-51
2021/06/20 05:55:01;;;;;;;0.50;0.30;;;;;;;26.10;72.15;99675.56;4995805;28;20429;-52
2021/06/20 05:57:28;;;;;;;0.50;0.20;;;;;;;26.16;71.62;99671.34;4998647;28;20493;-52
2021/06/20 05:59:54;;;;;;;0.60;0.50;;;;;;;26.42;71.02;99666.81;4995772;28;20535;-52
2021/06/20 06:02:21;;;;;;;0.50;0.30;;;;;;;25.87;71.80;99667.03;4996006;28;20479;-52
2021/06/20 06:04:47;;;;;;;0.50;0.30;;;;;;;26.14;70.37;99671.50;4995663;28;20569;-52
2021/06/20 06:07:14;;;;;;;2.10;1.50;;;;;;;26.11;69.95;99679.16;4988728;28;20946;-51
2021/06/20 06:09:41;;;;;;;0.50;0.20;;;;;;;26.35;70.19;99678.50;4990190;28;20510;-52
2021/06/20 06:12:08;;;;;;;0.50;0.20;;;;;;;26.41;68.97;99662.38;4988500;28;20452;-57
2021/06/20 06:14:35;;;;;;;0.50;0.30;;;;;;;26.73;69.21;99669.91;4997819;28;20488;-52
2021/06/20 06:17:02;;;;;;;0.50;0.30;;;;;;;26.62;69.25;99666.59;4983895;28;20456;-52
2021/06/20 06:19:29;;;;;;;0.50;0.30;;;;;;;26.85;69.36;99654.06;5013951;28;20444;-52
2021/06/20 06:21:56;;;;;;;0.50;0.30;;;;;;;26.70;68.16;99678.38;5014031;28;20448;-51
2021/06/20 06:24:23;;;;;;;0.50;0.30;;;;;;;26.39;69.08;99660.81;5014000;28;20452;-52
2021/06/20 06:26:50;;;;;;;0.50;0.30;;;;;;;26.55;68.05;99663.66;5012486;28;20941;-52
2021/06/20 06:29:16;;;;;;;0.43;0.20;;;;;;;26.55;67.74;99669.94;5013751;28;20460;-52
2021/06/20 06:31:43;;;;;;;0.50;0.30;;;;;;;26.44;67.10;99683.00;5013677;28;20934;-52
2021/06/20 06:34:10;;;;;;;0.50;0.23;;;;;;;26.45;67.28;99690.16;5011477;28;21032;-52
2021/06/20 06:36:38;;;;;;;0.50;0.30;;;;;;;26.46;67.30;99681.00;5011151;28;20479;-52
2021/06/20 06:39:04;;;;;;;0.50;0.30;;;;;;;26.43;67.13;99684.00;5013677;28;20472;-52
2021/06/20 06:41:32;;;;;;;0.50;0.30;;;;;;;26.72;66.27;99673.63;5000103;28;20475;-51
2021/06/20 06:43:58;;;;;;;0.50;0.30;;;;;;;26.66;67.08;99676.16;5011557;28;20904;-51
2021/06/20 06:46:25;;;;;;;1.27;0.87;;;;;;;27.06;64.77;99675.53;4994368;28;20460;-51
2021/06/20 06:48:52;;;;;;;0.50;0.27;;;;;;;26.78;64.96;99677.59;5011397;28;20462;-51
2021/06/20 06:51:21;;;;;;;0.50;0.30;;;;;;;27.07;64.61;99680.81;5005018;28;20526;-51
2021/06/20 06:53:47;;;;;;;0.50;0.30;;;;;;;27.10;63.39;99690.53;4997492;28;20493;-51
2021/06/20 06:56:14;;;;;;;0.50;0.30;;;;;;;27.21;63.42;99687.53;4996789;28;21019;-51
2021/06/20 06:58:40;;;;;;;0.80;0.80;;;;;;;27.21;63.04;99694.84;4995681;28;20890;-50
2021/06/20 07:01:07;;;;;;;0.50;0.30;;;;;;;27.19;63.15;99688.72;4996256;28;20527;-50
2021/06/20 07:03:34;;;;;;;0.50;0.30;;;;;;;27.18;64.30;99701.50;4993472;28;20526;-51
2021/06/20 07:06:01;;;;;;;1.53;0.93;;;;;;;26.71;65.17;99707.38;5000012;28;20507;-51
2021/06/20 07:08:28;;;;;;;0.50;0.20;;;;;;;26.53;65.65;99722.94;4988225;28;20583;-51
2021/06/20 07:10:54;;;;;;;0.50;0.37;;;;;;;26.86;64.49;99730.31;4997602;28;21021;-51
2021/06/20 07:13:21;;;;;;;0.50;0.20;;;;;;;26.72;65.67;99730.88;5012137;28;20492;-51
2021/06/20 07:15:48;;;;;;;0.50;0.27;;;;;;;26.90;64.89;99719.09;5012748;28;20507;-51
2021/06/20 07:18:15;;;;;;;0.50;0.30;;;;;;;27.20;64.56;99706.78;5009478;28;22455;-51
2021/06/20 07:20:41;;;;;;;0.63;0.63;;;;;;;27.19;64.23;99705.94;4999204;28;20843;-51
2021/06/20 07:23:08;;;;;;;3.43;0.60;;;;;;;27.44;63.25;99702.28;4981038;28;20523;-51
2021/06/20 07:25:35;;;;;;;0.50;0.20;;;;;;;26.86;64.28;99699.44;5005833;28;20461;-51
2021/06/20 07:28:02;;;;;;;0.50;0.30;;;;;;;26.69;64.25;99703.94;4995053;28;20541;-51
2021/06/20 07:30:28;;;;;;;0.53;0.40;;;;;;;26.58;64.35;99693.31;4990645;28;20484;-51
2021/06/20 07:32:56;;;;;;;0.60;0.60;;;;;;;26.98;63.17;99697.28;5001037;28;20872;-52
2021/06/20 07:35:23;;;;;;;0.50;0.20;;;;;;;26.40;65.18;99703.41;5007132;28;20423;-51
2021/06/20 07:37:49;;;;;;;0.50;0.30;;;;;;;27.01;64.62;99707.91;4995277;28;20436;-51
2021/06/20 07:40:16;;;;;;;2.20;0.70;;;;;;;26.99;64.28;99704.44;5003549;28;20508;-51
2021/06/20 07:42:45;;;;;;;0.50;0.30;;;;;;;26.92;65.47;99706.13;4994823;28;20440;-51
2021/06/20 07:45:12;;;;;;;0.50;0.20;;;;;;;27.55;63.82;99705.69;5015427;28;20452;-51
2021/06/20 07:47:41;;;;;;;0.50;0.30;;;;;;;27.10;63.56;99701.47;4999501;28;20556;-51
2021/06/20 07:50:10;;;;;;;0.50;0.30;;;;;;;27.01;64.85;99706.03;5005322;28;20505;-51
2021/06/20 07:52:38;;;;;;;0.50;0.30;;;;;;;27.14;64.77;99698.25;5001628;28;20893;-51
2021/06/20 07:55:06;;;;;;;0.50;0.30;;;;;;;27.15;65.76;99701.84;4992599;28;20493;-51
2021/06/20 07:57:33;;;;;;;0.50;0.30;;;;;;;27.28;63.90;99690.47;5002441;28;20443;-55
2021/06/20 08:00:00;;;;;;;0.50;0.30;;;;;;;27.36;64.83;99694.03;5011622;28;20471;-51
2021/06/20 08:02:27;;;;;;;0.50;0.30;;;;;;;27.21;65.00;99681.22;5012171;28;20445;-51
2021/06/20 08:04:53;;;;;;;0.50;0.40;;;;;;;27.51;63.77;99675.13;4997618;28;20453;-51
2021/06/20 08:07:20;;;;;;;0.50;0.30;;;;;;;27.51;64.11;99690.69;5001129;28;20510;-51
2021/06/20 08:09:47;;;;;;;0.50;0.30;;;;;;;27.94;62.25;99684.94;4987995;28;20477;-52
2021/06/20 08:12:14;;;;;;;0.50;0.30;;;;;;;27.88;60.82;99693.84;5006263;28;20457;-51
2021/06/20 08:14:41;;;;;;;0.50;0.30;;;;;;;27.51;62.82;99698.88;4994139;28;20992;-51
2021/06/20 08:17:10;;;;;;;0.50;0.30;;;;;;;27.44;62.50;99691.34;4990843;28;20453;-51
2021/06/20 08:19:37;;;;;;;0.50;0.30;;;;;;;27.98;62.51;99686.34;4985562;28;20545;-51
2021/06/20 08:22:03;;;;;;;0.50;0.30;;;;;;;28.27;60.00;99688.59;4994881;28;20476;-56
2021/06/20 08:24:30;;;;;;;0.50;0.30;;;;;;;28.02;59.96;99690.44;4998777;28;20512;-52
2021/06/20 08:26:57;;;;;;;0.70;0.43;;;;;;;27.86;60.61;99689.59;5010447;28;20452;-51
2021/06/20 08:29:23;;;;;;;0.50;0.30;;;;;;;27.97;59.88;99687.38;5012271;28;20475;-52
2021/06/20 08:31:50;;;;;;;0.60;0.40;;;;;;;27.42;59.84;99671.56;5000137;28;20435;-52
2021/06/20 08:34:17;;;;;;;0.50;0.30;;;;;;;27.49;59.81;99679.06;5008819;28;20979;-52
2021/06/20 08:36:43;;;;;;;0.50;0.30;;;;;;;27.54;59.92;99672.06;5003345;28;20446;-52
2021/06/20 08:39:10;;;;;;;0.50;0.50;;;;;;;27.74;59.29;99689.06;5006475;28;20467;-52
2021/06/20 08:41:44;;;;;;;0.50;0.20;;;;;;;27.87;59.40;99700.34;4998112;28;20472;-53
2021/06/20 08:44:16;;;;;;;0.50;0.27;;;;;;;28.22;60.47;99677.25;5012085;28;20444;-52
2021/06/20 08:46:43;;;;;;;0.50;0.30;;;;;;;28.73;56.00;99663.34;5010097;28;20501;-53
2021/06/20 08:49:11;;;;;;;0.60;0.50;;;;;;;28.56;56.39;99663.41;5015324;28;20427;-53
2021/06/20 08:51:40;;;;;;;0.50;0.23;;;;;;;28.76;55.58;99679.41;5015161;28;21072;-53
2021/06/20 08:54:07;;;;;;;0.50;0.30;;;;;;;29.00;54.79;99678.50;5011543;28;20484;-52
2021/06/20 08:56:35;;;;;;;0.60;0.40;;;;;;;28.66;55.70;99687.00;4983998;28;20996;-53
2021/06/20 08:59:04;;;;;;;1.33;1.23;;;;;;;28.67;56.32;99684.06;5007065;28;20452;-53
2021/06/20 09:01:35;;;;;;;0.50;0.30;;;;;;;28.93;55.54;99677.53;4993402;28;20819;-53
2021/06/20 09:04:02;;;;;;;0.50;0.30;;;;;;;28.77;56.95;99675.66;5010895;28;20503;-53
2021/06/20 09:06:29;;;;;;;0.60;0.43;;;;;;;27.97;57.51;99683.78;4996657;28;20461;-53
2021/06/20 09:08:58;;;;;;;1.20;0.50;;;;;;;27.65;57.23;99679.97;5010627;28;20433;-53
2021/06/20 09:11:27;;;;;;;0.60;0.50;;;;;;;28.51;56.99;99693.19;5016612;28;21014;-53
2021/06/20 09:14:13;;;;;;;0.50;0.30;;;;;;;28.40;57.31;99688.06;5015661;28;20532;-53
2021/06/20 09:16:54;;;;;;;0.90;0.90;;;;;;;28.67;56.22;99685.97;5005351;28;20535;-53
2021/06/20 09:19:34;;;;;;;7.63;1.17;;;;;;;28.93;53.32;99686.59;5003713;28;20478;-53
2021/06/20 09:22:06;;;;;;;0.50;0.30;;;;;;;28.86;55.03;99691.03;5014637;28;20463;-53
2021/06/20 09:24:32;;;;;;;0.50;0.30;;;;;;;28.90;53.61;99686.94;5014988;28;20453;-53
2021/06/20 09:27:00;;;;;;;0.50;0.30;;;;;;;28.90;54.49;99701.47;5007524;28;20464;-53
2021/06/20 09:29:33;;;;;;;0.50;0.30;;;;;;;28.04;56.60;99688.38;5014597;28;20463;-53
2021/06/20 09:32:03;;;;;;;0.50;0.20;;;;;;;28.23;57.76;99683.56;5014487;28;20501;-53
2021/06/20 09:34:50;;;;;;;0.50;0.20;;;;;;;28.18;57.95;99681.38;5009532;28;20887;-53
2021/06/20 09:37:20;;;;;;;0.60;0.53;;;;;;;28.42;55.82;99685.16;4996743;28;20435;-53
2021/06/20 09:39:47;;;;;;;0.50;0.30;;;;;;;28.10;56.99;99691.44;5009030;28;20897;-53
2021/06/20 09:42:15;;;;;;;0.50;0.30;;;;;;;29.02;54.45;99685.50;5005399;28;20468;-53
2021/06/20 09:44:57;;;;;;;0.60;0.40;;;;;;;28.85;53.73;99687.44;5012804;28;20922;-53
2021/06/20 09:47:26;;;;;;;0.57;0.50;;;;;;;29.08;52.88;99684.81;5002083;28;20491;-53
2021/06/20 09:49:54;;;;;;;0.50;0.30;;;;;;;28.35;54.98;99673.19;5013430;28;20567;-53
2021/06/20 09:52:25;;;;;;;0.50;0.30;;;;;;;29.10;55.00;99665.47;5014282;28;20455;-52
2021/06/20 09:54:59;;;;;;;0.50;0.30;;;;;;;29.30;54.41;99666.72;5014824;28;20948;-53
2021/06/20 09:57:26;;;;;;;0.50;0.30;;;;;;;28.88;54.88;99664.34;5002408;28;20469;-53
2021/06/20 10:00:04;;;;;;;0.50;0.40;;;;;;;29.28;54.35;99659.72;5013488;28;20469;-53
2021/06/20 10:02:34;;;;;;;0.50;0.30;;;;;;;29.03;52.94;99643.41;5015477;28;20449;-53
2021/06/20 10:05:01;;;;;;;0.73;0.73;;;;;;;29.29;54.35;99647.75;5004925;28;20974;-53
2021/06/20 10:07:29;;;;;;;0.70;0.67;;;;;;;28.79;54.23;99635.31;5002410;28;20468;-53
2021/06/20 10:09:58;;;;;;;0.50;0.30;;;;;;;29.08;55.02;99651.13;5013812;28;21027;-53
2021/06/20 10:12:25;;;;;;;1.37;1.37;;;;;;;29.11;53.03;99648.00;5013458;28;20462;-53
2021/06/20 10:14:54;;;;;;;0.50;0.30;;;;;;;29.20;53.18;99638.75;5013644;28;20500;-53
2021/06/20 10:17:33;;;;;;;0.50;0.30;;;;;;;29.65;52.17;99657.13;5006191;28;20583;-53
2021/06/20 10:20:05;;;;;;;0.50;0.30;;;;;;;29.94;51.71;99642.69;5013397;28;20503;-53
2021/06/20 10:22:40;;;;;;;0.60;0.60;;;;;;;29.62;52.54;99649.28;5013974;28;20445;-53
2021/06/20 10:25:10;;;;;;;1.10;1.10;;;;;;;29.58;51.91;99649.81;5013677;28;20452;-52
2021/06/20 10:27:41;;;;;;;0.50;0.50;;;;;;;30.06;51.28;99643.13;5007441;28;20503;-51
2021/06/20 10:30:11;;;;;;;0.50;0.30;;;;;;;30.03;51.35;99646.22;5013525;28;20503;-51
2021/06/20 10:32:41;;;;;;;0.50;0.30;;;;;;;29.97;51.52;99633.25;5013555;28;20448;-52
2021/06/20 10:35:14;;;;;;;0.50;0.30;;;;;;;29.93;50.58;99630.03;5008544;28;20862;-52
2021/06/20 10:37:42;;;;;;;0.50;0.30;;;;;;;29.86;51.02;99628.19;5010772;28;20500;-52
2021/06/20 10:40:29;;;;;;;1.23;1.07;;;;;;;29.98;50.32;99619.34;4992737;28;20448;-52
2021/06/20 10:42:59;;;;;;;0.50;0.30;;;;;;;29.74;49.53;99614.06;5010090;28;20448;-51
2021/06/20 10:45:26;;;;;;;0.50;0.30;;;;;;;29.72;49.72;99608.78;5013269;28;20900;-52
2021/06/20 10:47:52;;;;;;;0.53;0.47;;;;;;;30.28;49.70;99602.97;4999343;28;20460;-52
2021/06/20 10:50:19;;;;;;;21.73;1.40;;;;;;;29.93;51.00;99601.75;5013281;28;20459;-51
2021/06/20 10:52:58;;;;;;;0.50;0.30;;;;;;;29.52;50.75;99602.09;5013081;28;20538;-51
2021/06/20 10:55:25;;;;;;;0.50;0.30;;;;;;;29.51;52.26;99589.44;5012744;28;20558;-51
2021/06/20 10:57:55;;;;;;;0.50;0.30;;;;;;;30.15;51.22;99581.69;5000901;28;20921;-52
2021/06/20 11:00:27;;;;;;;0.60;0.53;;;;;;;30.43;50.16;99581.03;5012560;28;20538;-53
2021/06/20 11:02:55;;;;;;;2.07;1.10;;;;;;;30.21;50.04;99593.81;5012687;28;20452;-52
2021/06/20 11:05:24;;;;;;;0.47;0.30;;;;;;;30.14;49.62;99592.84;5002222;28;20454;-52
2021/06/20 11:08:03;;;;;;;0.50;0.30;;;;;;;30.82;48.97;99578.88;5004032;28;20471;-52
2021/06/20 11:10:30;;;;;;;0.50;0.30;;;;;;;31.11;48.05;99586.19;5006937;28;20936;-52
2021/06/20 11:12:57;;;;;;;0.50;0.30;;;;;;;31.45;48.38;99593.78;5011997;28;20790;-52
2021/06/20 11:15:26;;;;;;;0.50;0.30;;;;;;;30.36;49.32;99592.78;5013049;28;20499;-52
2021/06/20 11:18:04;;;;;;;0.50;0.30;;;;;;;30.24;48.41;99588.78;5007985;28;20485;-52
2021/06/20 11:20:31;;;;;;;0.60;0.50;;;;;;;30.07;50.72;99568.06;5012279;28;20450;-52
2021/06/20 11:22:58;;;;;;;0.50;0.30;;;;;;;30.54;48.93;99567.69;5012511;28;20474;-52
2021/06/20 11:25:26;;;;;;;0.50;0.30;;;;;;;29.78;49.72;99560.63;5010669;28;20753;-52
2021/06/20 11:27:52;;;;;;;0.50;0.30;;;;;;;30.34;49.99;99552.88;5007994;28;20435;-51
2021/06/20 11:30:20;;;;;;;1.37;0.53;;;;;;;30.58;50.49;99547.09;5012122;28;20845;-52
2021/06/20 11:32:47;;;;;;;0.50;0.30;;;;;;;30.92;49.12;99543.72;5011961;28;20957;-53
2021/06/20 11:35:16;;;;;;;0.50;0.30;;;;;;;30.97;48.45;99534.91;5007472;28;20469;-52
2021/06/20 11:37:49;;;;;;;0.50;0.40;;;;;;;31.09;48.11;99530.59;4998282;28;20436;-52